Time;durP1;ratioP1;P1;durP2;ratioP2;P2;SDS_P1;SDS_P2;PMS_P1;PMS_P2;Temp;Humidity;BMP_temperature;BMP_pressure;BME280_temperature;BME280_humidity;BME280_pressure;Samples;Min_cycle;Max_cycle;Signal;HPM_P1;HPM_P2
2022/12/13 00:00:44;;;;;;;;;;;21.90;60.20;;;;;;1574298;73;787;-64
2022/12/13 00:02:46;;;;;;;;;;;21.90;60.30;;;;;;1581115;73;1941;-64
2022/12/13 00:04:48;;;;;;;;;;;21.90;60.40;;;;;;1574825;73;792;-63
2022/12/13 00:06:50;;;;;;;;;;;21.90;60.40;;;;;;1592947;73;1103;-65
2022/12/13 00:08:52;;;;;;;;;;;21.90;60.50;;;;;;1590653;73;1160;-64
2022/12/13 00:11:00;;;;;;;;;;;21.80;60.30;;;;;;1582542;73;832;-63
2022/12/13 00:13:03;;;;;;;;;;;21.90;60.50;;;;;;1582767;73;811;-63
2022/12/13 00:15:05;;;;;;;;;;;21.90;60.40;;;;;;1588370;73;705;-64
2022/12/13 00:17:07;;;;;;;;;;;21.90;60.50;;;;;;1590320;73;765;-64
2022/12/13 00:19:09;;;;;;;;;;;21.90;60.50;;;;;;1596589;73;1099;-66
2022/12/13 00:21:12;;;;;;;;;;;21.80;60.40;;;;;;1589351;73;1936;-63
2022/12/13 00:23:14;;;;;;;;;;;21.90;60.60;;;;;;1588104;73;736;-66
2022/12/13 00:25:18;;;;;;;;;;;21.90;60.60;;;;;;1582680;73;731;-67
2022/12/13 00:27:19;;;;;;;;;;;21.90;60.60;;;;;;1579357;73;1631;-65
2022/12/13 00:29:21;;;;;;;;;;;21.90;60.70;;;;;;1590445;73;1206;-64
2022/12/13 00:31:24;;;;;;;;;;;21.80;60.50;;;;;;1595681;73;756;-65
2022/12/13 00:33:26;;;;;;;;;;;21.80;60.60;;;;;;1587687;73;667;-65
2022/12/13 00:35:28;;;;;;;;;;;21.90;60.70;;;;;;1590514;73;717;-71
2022/12/13 00:37:30;;;;;;;;;;;21.80;60.60;;;;;;1583734;73;727;-70
2022/12/13 00:39:32;;;;;;;;;;;21.90;60.70;;;;;;1589530;73;1151;-65
2022/12/13 00:41:35;;;;;;;;;;;21.80;60.60;;;;;;1586991;73;1924;-64
2022/12/13 00:43:37;;;;;;;;;;;21.80;60.50;;;;;;1590810;73;745;-64
2022/12/13 00:45:39;;;;;;;;;;;21.80;60.60;;;;;;1589772;73;692;-64
2022/12/13 00:47:40;;;;;;;;;;;21.90;60.60;;;;;;1590293;73;682;-64
2022/12/13 00:49:42;;;;;;;;;;;21.90;60.60;;;;;;1580818;73;1143;-64
2022/12/13 00:51:44;;;;;;;;;;;21.90;60.60;;;;;;1582044;73;759;-66
2022/12/13 00:53:46;;;;;;;;;;;21.90;60.50;;;;;;1593260;73;1465;-64
2022/12/13 00:55:48;;;;;;;;;;;21.90;60.60;;;;;;1592578;73;679;-64
2022/12/13 00:57:50;;;;;;;;;;;21.90;60.50;;;;;;1581075;73;901;-64
2022/12/13 00:59:52;;;;;;;;;;;21.80;60.40;;;;;;1585757;73;1144;-64
2022/12/13 01:01:54;;;;;;;;;;;21.80;60.50;;;;;;1584212;73;1928;-64
2022/12/13 01:03:56;;;;;;;;;;;21.80;60.50;;;;;;1586758;73;622;-64
2022/12/13 01:05:58;;;;;;;;;;;21.80;60.50;;;;;;1583907;73;638;-64
2022/12/13 01:08:01;;;;;;;;;;;21.90;60.50;;;;;;1586325;73;1160;-67
2022/12/13 01:10:03;;;;;;;;;;;21.80;60.40;;;;;;1589908;73;805;-64
2022/12/13 01:12:05;;;;;;;;;;;21.80;60.40;;;;;;1588109;73;835;-64
2022/12/13 01:14:07;;;;;;;;;;;21.80;60.40;;;;;;1583698;73;783;-64
2022/12/13 01:16:09;;;;;;;;;;;21.90;60.50;;;;;;1590089;73;735;-64
2022/12/13 01:18:12;;;;;;;;;;;21.80;60.30;;;;;;1587537;73;1136;-67
2022/12/13 01:20:14;;;;;;;;;;;21.80;60.30;;;;;;1576510;73;694;-64
2022/12/13 01:22:16;;;;;;;;;;;21.80;60.30;;;;;;1589191;73;1934;-64
2022/12/13 01:24:20;;;;;;;;;;;21.80;60.30;;;;;;1593394;73;656;-64
2022/12/13 01:26:21;;;;;;;;;;;21.80;60.30;;;;;;1586274;73;1428;-61
2022/12/13 01:28:23;;;;;;;;;;;21.80;60.30;;;;;;1585004;73;1207;-61
2022/12/13 01:30:25;;;;;;;;;;;21.80;60.30;;;;;;1579250;73;787;-61
2022/12/13 01:32:27;;;;;;;;;;;21.80;60.30;;;;;;1588071;73;695;-62
2022/12/13 01:34:29;;;;;;;;;;;21.80;60.30;;;;;;1593023;73;814;-62
2022/12/13 01:36:31;;;;;;;;;;;21.80;60.20;;;;;;1588195;73;706;-63
2022/12/13 01:38:33;;;;;;;;;;;21.80;60.20;;;;;;1592517;73;1191;-62
2022/12/13 01:40:35;;;;;;;;;;;21.80;60.20;;;;;;1583016;73;693;-63
2022/12/13 01:42:37;;;;;;;;;;;21.80;60.20;;;;;;1558448;75;1936;-63
2022/12/13 01:44:59;;;;;;;;;;;21.80;60.30;;;;;;1592397;73;721;-64
2022/12/13 01:47:00;;;;;;;;;;;21.70;60.30;;;;;;1576673;73;711;-69
2022/12/13 01:49:06;;;;;;;;;;;21.80;60.30;;;;;;1594839;73;1400;-67
2022/12/13 01:51:09;;;;;;;;;;;21.70;60.30;;;;;;1586271;73;804;-65
2022/12/13 01:53:11;;;;;;;;;;;21.80;60.30;;;;;;1581738;73;725;-65
2022/12/13 01:55:13;;;;;;;;;;;21.80;60.30;;;;;;1576840;73;717;-64
2022/12/13 01:57:15;;;;;;;;;;;21.80;60.30;;;;;;1595600;73;780;-64
2022/12/13 01:59:17;;;;;;;;;;;21.80;60.30;;;;;;1591015;73;1096;-63
2022/12/13 02:01:19;;;;;;;;;;;21.70;60.30;;;;;;1584613;73;766;-64
2022/12/13 02:03:21;;;;;;;;;;;21.70;60.40;;;;;;1579166;73;1928;-63
2022/12/13 02:05:25;;;;;;;;;;;21.70;60.40;;;;;;1594449;73;706;-64
2022/12/13 02:07:27;;;;;;;;;;;21.60;60.50;;;;;;1580994;73;1664;-64
2022/12/13 02:09:29;;;;;;;;;;;21.70;60.50;;;;;;1579603;73;1136;-63
2022/12/13 02:11:31;;;;;;;;;;;21.70;60.40;;;;;;1588902;73;710;-64
2022/12/13 02:13:33;;;;;;;;;;;21.70;60.40;;;;;;1590059;73;711;-65
2022/12/13 02:15:37;;;;;;;;;;;21.80;60.50;;;;;;1588345;73;686;-63
2022/12/13 02:17:52;;;;;;;;;;;21.70;60.50;;;;;;1587303;73;1870;-65
2022/12/13 02:19:56;;;;;;;;;;;21.70;60.40;;;;;;1595282;73;721;-64
2022/12/13 02:21:59;;;;;;;;;;;21.70;60.40;;;;;;1586875;73;1934;-63
2022/12/13 02:24:21;;;;;;;;;;;21.70;60.50;;;;;;1578970;73;710;-64
2022/12/13 02:26:24;;;;;;;;;;;21.70;60.50;;;;;;1583455;73;686;-63
2022/12/13 02:28:28;;;;;;;;;;;21.70;60.50;;;;;;1574850;73;1729;-63
2022/12/13 02:30:38;;;;;;;;;;;21.70;60.60;;;;;;1598468;73;1606;-63
2022/12/13 02:32:41;;;;;;;;;;;21.70;60.70;;;;;;1582015;73;801;-64
2022/12/13 02:34:45;;;;;;;;;;;21.70;60.80;;;;;;1588113;73;714;-64
2022/12/13 02:36:51;;;;;;;;;;;21.70;60.60;;;;;;1586270;73;1705;-63
2022/12/13 02:38:54;;;;;;;;;;;21.70;60.60;;;;;;1588477;73;1922;-66
2022/12/13 02:41:07;;;;;;;;;;;21.80;60.70;;;;;;1591486;73;1638;-66
2022/12/13 02:43:09;;;;;;;;;;;21.80;60.70;;;;;;1590946;73;1915;-67
2022/12/13 02:45:15;;;;;;;;;;;21.70;60.60;;;;;;1580178;73;1580;-68
2022/12/13 02:47:21;;;;;;;;;;;21.80;60.60;;;;;;1586683;73;1005;-64
2022/12/13 02:49:23;;;;;;;;;;;21.80;60.60;;;;;;1580909;73;1168;-65
2022/12/13 02:51:25;;;;;;;;;;;21.80;60.50;;;;;;1589248;73;695;-65
2022/12/13 02:53:27;;;;;;;;;;;21.80;60.40;;;;;;1583251;73;538;-63
2022/12/13 02:55:31;;;;;;;;;;;21.80;60.50;;;;;;1584819;73;806;-63
2022/12/13 02:57:34;;;;;;;;;;;21.80;60.40;;;;;;1586527;73;780;-63
2022/12/13 02:59:36;;;;;;;;;;;21.80;60.40;;;;;;1588102;73;3055;-69
2022/12/13 03:01:45;;;;;;;;;;;21.80;60.40;;;;;;1547291;75;669;-68
2022/12/13 03:03:49;;;;;;;;;;;21.80;60.30;;;;;;1551608;75;1951;-68
2022/12/13 03:06:29;;;;;;;;;;;21.80;60.30;;;;;;1557031;74;893;-68
2022/12/13 03:08:32;;;;;;;;;;;21.70;60.30;;;;;;1520306;75;1237;-68
2022/12/13 03:10:48;;;;;;;;;;;21.70;60.30;;;;;;1545604;75;756;-67
2022/12/13 03:15:13;;;;;;;;;;;21.70;60.40;;;;;;1553602;75;1683;-66
2022/12/13 03:17:15;;;;;;;;;;;21.70;60.50;;;;;;1545406;75;684;-66
2022/12/13 03:19:17;;;;;;;;;;;21.80;60.50;;;;;;1555800;75;1135;-67
2022/12/13 03:21:19;;;;;;;;;;;21.70;60.50;;;;;;1548518;75;779;-67
2022/12/13 03:23:21;;;;;;;;;;;21.80;60.40;;;;;;1555410;75;1943;-66
2022/12/13 03:25:24;;;;;;;;;;;21.80;60.40;;;;;;1550276;75;769;-67
2022/12/13 03:27:26;;;;;;;;;;;21.80;60.40;;;;;;1550135;75;722;-68
2022/12/13 03:29:28;;;;;;;;;;;21.80;60.40;;;;;;1556134;75;1144;-66
2022/12/13 03:31:30;;;;;;;;;;;21.80;60.30;;;;;;1547869;75;773;-66
2022/12/13 03:33:31;;;;;;;;;;;21.80;60.30;;;;;;1555053;75;779;-67
2022/12/13 03:35:33;;;;;;;;;;;21.80;60.30;;;;;;1543085;75;776;-66
2022/12/13 03:37:35;;;;;;;;;;;21.80;60.30;;;;;;1567902;75;686;-67
2022/12/13 03:39:37;;;;;;;;;;;21.80;60.40;;;;;;1567391;75;1147;-67
2022/12/13 03:41:39;;;;;;;;;;;21.80;60.40;;;;;;1556596;75;1578;-68
2022/12/13 03:43:41;;;;;;;;;;;21.80;60.40;;;;;;1554034;75;1958;-66
2022/12/13 03:45:43;;;;;;;;;;;21.80;60.50;;;;;;1566823;75;915;-66
2022/12/13 03:47:44;;;;;;;;;;;21.70;60.60;;;;;;1552284;75;750;-66
2022/12/13 03:49:46;;;;;;;;;;;21.80;60.60;;;;;;1566040;75;1118;-67
2022/12/13 03:51:48;;;;;;;;;;;21.80;60.60;;;;;;1551900;75;761;-66
2022/12/13 03:53:50;;;;;;;;;;;21.70;60.60;;;;;;1552557;75;702;-66
2022/12/13 03:55:52;;;;;;;;;;;21.70;60.70;;;;;;1565450;75;713;-66
2022/12/13 03:57:54;;;;;;;;;;;21.70;60.80;;;;;;1556968;75;1108;-66
2022/12/13 03:59:56;;;;;;;;;;;21.80;60.80;;;;;;1546988;75;753;-69
2022/12/13 04:01:58;;;;;;;;;;;21.80;60.80;;;;;;1555400;75;678;-67
2022/12/13 04:04:00;;;;;;;;;;;21.80;60.80;;;;;;1542893;75;1924;-65
2022/12/13 04:06:01;;;;;;;;;;;21.80;60.90;;;;;;1552808;75;751;-66
2022/12/13 04:08:03;;;;;;;;;;;21.70;60.80;;;;;;1546455;75;1144;-66
2022/12/13 04:10:06;;;;;;;;;;;21.80;60.90;;;;;;1561748;75;905;-66
2022/12/13 04:14:27;;;;;;;;;;;21.80;60.90;;;;;;1557583;75;1642;-70
2022/12/13 04:16:29;;;;;;;;;;;21.80;61.10;;;;;;1551766;75;728;-67
2022/12/13 04:18:31;;;;;;;;;;;21.80;61.40;;;;;;1560418;75;1129;-70
2022/12/13 04:20:33;;;;;;;;;;;21.80;61.50;;;;;;1549625;75;745;-68
2022/12/13 04:22:35;;;;;;;;;;;21.80;61.60;;;;;;1558532;75;1926;-67
2022/12/13 04:24:37;;;;;;;;;;;21.80;61.60;;;;;;1558669;75;735;-67
2022/12/13 04:26:39;;;;;;;;;;;21.80;61.70;;;;;;1543998;75;700;-68
2022/12/13 04:28:40;;;;;;;;;;;21.80;61.80;;;;;;1552511;75;1176;-68
2022/12/13 04:30:42;;;;;;;;;;;21.80;61.80;;;;;;1559331;75;770;-67
2022/12/13 04:32:44;;;;;;;;;;;21.70;61.80;;;;;;1555356;75;742;-68
2022/12/13 04:34:46;;;;;;;;;;;21.80;61.90;;;;;;1547822;75;714;-67
2022/12/13 04:36:48;;;;;;;;;;;21.70;61.90;;;;;;1550194;75;809;-67
2022/12/13 04:38:50;;;;;;;;;;;21.70;61.90;;;;;;1545198;75;1552;-67
2022/12/13 04:40:52;;;;;;;;;;;21.80;61.90;;;;;;1556697;75;728;-67
2022/12/13 04:42:54;;;;;;;;;;;21.70;61.90;;;;;;1549521;75;1936;-68
2022/12/13 04:44:56;;;;;;;;;;;21.80;62.00;;;;;;1554391;75;614;-68
2022/12/13 04:46:58;;;;;;;;;;;21.70;62.00;;;;;;1551003;75;703;-67
2022/12/13 04:49:00;;;;;;;;;;;21.70;61.90;;;;;;1555708;75;1109;-67
2022/12/13 04:51:02;;;;;;;;;;;21.70;61.80;;;;;;1544960;75;711;-69
2022/12/13 04:53:04;;;;;;;;;;;21.80;61.90;;;;;;1557705;75;730;-67
2022/12/13 04:55:07;;;;;;;;;;;21.70;61.90;;;;;;1550062;75;755;-67
2022/12/13 04:57:10;;;;;;;;;;;21.80;61.80;;;;;;1556311;75;709;-68
2022/12/13 04:59:11;;;;;;;;;;;21.80;61.80;;;;;;1549338;75;1146;-68
2022/12/13 05:01:13;;;;;;;;;;;21.80;61.80;;;;;;1552744;75;766;-72
2022/12/13 05:03:15;;;;;;;;;;;21.80;61.90;;;;;;1543659;75;1947;-71
2022/12/13 05:05:17;;;;;;;;;;;21.80;61.80;;;;;;1549940;75;777;-68
2022/12/13 05:07:19;;;;;;;;;;;21.80;61.70;;;;;;1554303;75;722;-70
2022/12/13 05:09:21;;;;;;;;;;;21.80;61.70;;;;;;1551684;75;1098;-68
2022/12/13 05:11:23;;;;;;;;;;;21.80;61.60;;;;;;1555731;75;870;-68
2022/12/13 05:13:24;;;;;;;;;;;21.80;61.60;;;;;;1560552;75;714;-68
2022/12/13 05:15:27;;;;;;;;;;;21.80;61.60;;;;;;1557226;75;687;-70
2022/12/13 05:17:28;;;;;;;;;;;21.80;61.60;;;;;;1568335;75;717;-70
2022/12/13 05:19:30;;;;;;;;;;;21.70;61.60;;;;;;1556543;75;1118;-72
2022/12/13 05:21:33;;;;;;;;;;;21.80;61.50;;;;;;1566552;75;731;-68
2022/12/13 05:23:35;;;;;;;;;;;21.70;61.60;;;;;;1569407;75;1904;-66
2022/12/13 05:25:37;;;;;;;;;;;21.70;61.60;;;;;;1561290;75;769;-66
2022/12/13 05:27:39;;;;;;;;;;;21.80;61.50;;;;;;1557604;75;740;-66
2022/12/13 05:29:41;;;;;;;;;;;21.80;61.60;;;;;;1551005;75;1078;-67
2022/12/13 05:31:43;;;;;;;;;;;21.80;61.60;;;;;;1542161;75;746;-68
2022/12/13 05:33:45;;;;;;;;;;;21.80;61.70;;;;;;1545886;75;1521;-70
2022/12/13 05:35:47;;;;;;;;;;;21.80;61.70;;;;;;1539525;75;709;-67
2022/12/13 05:37:49;;;;;;;;;;;21.80;61.60;;;;;;1544664;75;654;-67
2022/12/13 05:39:51;;;;;;;;;;;21.80;61.60;;;;;;1543518;75;1180;-69
2022/12/13 05:41:53;;;;;;;;;;;21.90;61.60;;;;;;1541179;75;669;-68
2022/12/13 05:43:55;;;;;;;;;;;21.90;61.70;;;;;;1540916;75;1927;-69
2022/12/13 05:45:57;;;;;;;;;;;21.90;61.60;;;;;;1548790;75;700;-70
2022/12/13 05:47:59;;;;;;;;;;;21.80;61.50;;;;;;1543866;75;1335;-71
2022/12/13 05:50:00;;;;;;;;;;;21.90;61.60;;;;;;1539837;75;724;-70
2022/12/13 05:52:02;;;;;;;;;;;21.80;61.40;;;;;;1546176;75;760;-70
2022/12/13 05:54:04;;;;;;;;;;;21.90;61.50;;;;;;1548967;75;750;-67
2022/12/13 05:56:06;;;;;;;;;;;21.90;61.50;;;;;;1547997;75;726;-67
2022/12/13 05:58:11;;;;;;;;;;;21.90;61.50;;;;;;1546670;75;1158;-67
2022/12/13 06:00:12;;;;;;;;;;;21.90;61.50;;;;;;1545685;75;1801;-68
2022/12/13 06:02:14;;;;;;;;;;;21.90;61.40;;;;;;1542414;75;1282;-68
2022/12/13 06:04:16;;;;;;;;;;;21.90;61.40;;;;;;1540683;75;1942;-69
2022/12/13 06:06:18;;;;;;;;;;;21.90;61.40;;;;;;1544495;75;735;-69
2022/12/13 06:08:20;;;;;;;;;;;21.90;61.40;;;;;;1542939;75;1164;-66
2022/12/13 06:10:22;;;;;;;;;;;21.90;61.40;;;;;;1557364;75;723;-67
2022/12/13 06:12:24;;;;;;;;;;;21.90;61.50;;;;;;1562511;75;689;-66
2022/12/13 06:14:26;;;;;;;;;;;21.90;61.30;;;;;;1561649;75;782;-67
2022/12/13 06:16:27;;;;;;;;;;;21.90;61.20;;;;;;1561934;75;1521;-67
2022/12/13 06:18:30;;;;;;;;;;;21.90;61.10;;;;;;1551995;75;1127;-66
2022/12/13 06:20:32;;;;;;;;;;;21.90;61.00;;;;;;1560556;75;649;-68
2022/12/13 06:22:34;;;;;;;;;;;21.90;60.90;;;;;;1545898;75;742;-66
2022/12/13 06:24:36;;;;;;;;;;;21.80;60.80;;;;;;1552150;75;1951;-66
2022/12/13 06:26:37;;;;;;;;;;;21.80;60.70;;;;;;1554306;75;786;-67
2022/12/13 06:28:39;;;;;;;;;;;21.70;60.70;;;;;;1551964;75;1121;-69
2022/12/13 06:30:41;;;;;;;;;;;21.70;60.70;;;;;;1540711;75;1332;-65
2022/12/13 06:32:43;;;;;;;;;;;21.80;60.60;;;;;;1552677;75;744;-63
2022/12/13 06:34:45;;;;;;;;;;;21.70;60.60;;;;;;1513828;76;725;-67
2022/12/13 06:36:47;;;;;;;;;;;21.80;60.60;;;;;;1549547;75;755;-67
2022/12/13 06:38:49;;;;;;;;;;;21.80;60.60;;;;;;1546024;75;1133;-65
2022/12/13 06:40:51;;;;;;;;;;;21.80;60.60;;;;;;1553277;75;774;-63
2022/12/13 06:42:52;;;;;;;;;;;21.80;60.60;;;;;;1556391;75;739;-64
2022/12/13 06:44:54;;;;;;;;;;;21.90;60.90;;;;;;1557313;75;1948;-67
2022/12/13 06:46:56;;;;;;;;;;;21.80;60.60;;;;;;1556534;75;743;-65
2022/12/13 06:48:58;;;;;;;;;;;21.80;60.50;;;;;;1547231;75;1156;-65
2022/12/13 06:51:02;;;;;;;;;;;21.80;60.40;;;;;;1545873;75;717;-65
2022/12/13 06:53:03;;;;;;;;;;;21.80;60.40;;;;;;1540661;75;1016;-65
2022/12/13 06:55:06;;;;;;;;;;;21.80;58.80;;;;;;1565302;75;715;-65
2022/12/13 06:57:08;;;;;;;;;;;21.90;57.10;;;;;;1546523;75;767;-65
2022/12/13 06:59:09;;;;;;;;;;;21.80;57.40;;;;;;1548612;75;1317;-65
2022/12/13 07:01:12;;;;;;;;;;;21.70;57.80;;;;;;1548585;75;761;-65
2022/12/13 07:03:14;;;;;;;;;;;21.80;57.90;;;;;;1545136;75;809;-65
2022/12/13 07:05:16;;;;;;;;;;;21.80;58.00;;;;;;1554559;75;1940;-65
2022/12/13 07:07:18;;;;;;;;;;;21.70;58.10;;;;;;1550777;75;702;-65
2022/12/13 07:09:20;;;;;;;;;;;21.60;58.10;;;;;;1544989;75;1135;-64
2022/12/13 07:11:22;;;;;;;;;;;21.60;58.10;;;;;;1553134;75;725;-65
2022/12/13 07:13:24;;;;;;;;;;;21.60;58.50;;;;;;1551133;75;1568;-65
2022/12/13 07:15:26;;;;;;;;;;;21.60;58.60;;;;;;1548053;75;791;-65
2022/12/13 07:17:28;;;;;;;;;;;21.60;58.60;;;;;;1554851;75;699;-65
2022/12/13 07:19:30;;;;;;;;;;;21.60;58.60;;;;;;1552211;75;1133;-64
2022/12/13 07:21:32;;;;;;;;;;;21.60;58.70;;;;;;1531901;75;749;-64
2022/12/13 07:23:34;;;;;;;;;;;21.50;58.60;;;;;;1536191;75;1923;-64
2022/12/13 07:25:36;;;;;;;;;;;21.50;58.60;;;;;;1546153;75;630;-64
2022/12/13 07:27:38;;;;;;;;;;;21.60;58.70;;;;;;1534100;75;1526;-64
2022/12/13 07:29:40;;;;;;;;;;;21.50;58.70;;;;;;1549243;75;1125;-64
2022/12/13 07:31:42;;;;;;;;;;;21.50;58.70;;;;;;1544935;75;691;-65
2022/12/13 07:33:44;;;;;;;;;;;21.60;58.70;;;;;;1569067;75;743;-64
2022/12/13 07:35:46;;;;;;;;;;;21.50;58.60;;;;;;1547369;75;698;-64
2022/12/13 07:37:48;;;;;;;;;;;21.50;58.70;;;;;;1569522;75;697;-64
2022/12/13 07:39:50;;;;;;;;;;;21.50;58.70;;;;;;1565049;75;1068;-64
2022/12/13 07:41:53;;;;;;;;;;;21.50;58.70;;;;;;1554510;75;691;-64
2022/12/13 07:43:55;;;;;;;;;;;21.50;58.70;;;;;;1543580;75;1920;-64
2022/12/13 07:45:58;;;;;;;;;;;21.50;58.60;;;;;;1555562;75;743;-64
2022/12/13 07:48:01;;;;;;;;;;;21.50;58.70;;;;;;1540478;75;1123;-65
2022/12/13 07:50:03;;;;;;;;;;;21.50;58.70;;;;;;1544252;75;998;-65
2022/12/13 07:52:07;;;;;;;;;;;21.50;58.60;;;;;;1543840;75;685;-64
2022/12/13 07:54:09;;;;;;;;;;;21.50;58.70;;;;;;1551236;75;1940;-64
2022/12/13 07:56:11;;;;;;;;;;;21.50;58.60;;;;;;1544284;75;715;-65
2022/12/13 07:58:13;;;;;;;;;;;21.50;58.60;;;;;;1562215;75;1153;-64
2022/12/13 08:00:15;;;;;;;;;;;21.50;58.60;;;;;;1542786;75;760;-64
2022/12/13 08:02:17;;;;;;;;;;;21.50;58.60;;;;;;1543443;75;792;-64
2022/12/13 08:04:19;;;;;;;;;;;21.50;58.60;;;;;;1565881;75;1950;-65
2022/12/13 08:06:21;;;;;;;;;;;21.50;58.50;;;;;;1536741;75;656;-65
2022/12/13 08:08:23;;;;;;;;;;;21.50;58.60;;;;;;1558073;75;1595;-65
2022/12/13 08:10:25;;;;;;;;;;;21.50;58.60;;;;;;1540976;75;692;-65
2022/12/13 08:12:26;;;;;;;;;;;21.40;58.40;;;;;;1561587;75;774;-65
2022/12/13 08:14:28;;;;;;;;;;;21.50;58.50;;;;;;1560851;75;692;-64
2022/12/13 08:16:30;;;;;;;;;;;21.50;58.50;;;;;;1542862;75;784;-64
2022/12/13 08:18:32;;;;;;;;;;;21.50;58.50;;;;;;1550123;75;1096;-65
2022/12/13 08:20:34;;;;;;;;;;;21.40;58.40;;;;;;1550560;75;664;-64
2022/12/13 08:22:36;;;;;;;;;;;21.50;58.10;;;;;;1560974;75;1359;-65
2022/12/13 08:24:38;;;;;;;;;;;21.40;58.40;;;;;;1560085;75;1934;-65
2022/12/13 08:26:40;;;;;;;;;;;21.40;57.80;;;;;;1560236;75;667;-65
2022/12/13 08:28:42;;;;;;;;;;;21.50;58.00;;;;;;1558334;75;1143;-65
2022/12/13 08:30:44;;;;;;;;;;;21.50;57.90;;;;;;1542872;75;738;-65
2022/12/13 08:32:45;;;;;;;;;;;21.40;57.70;;;;;;1554301;75;747;-64
2022/12/13 08:34:47;;;;;;;;;;;21.40;57.70;;;;;;1545392;75;755;-65
2022/12/13 08:36:51;;;;;;;;;;;21.40;57.70;;;;;;1548229;75;1542;-65
2022/12/13 08:38:54;;;;;;;;;;;21.50;57.80;;;;;;1542701;75;1109;-64
2022/12/13 08:40:58;;;;;;;;;;;21.40;57.60;;;;;;1549145;75;778;-64
2022/12/13 08:43:00;;;;;;;;;;;21.40;57.50;;;;;;1538284;75;790;-65
2022/12/13 08:45:02;;;;;;;;;;;21.40;57.40;;;;;;1558923;75;1945;-65
2022/12/13 08:47:04;;;;;;;;;;;21.40;57.40;;;;;;1551270;75;701;-66
2022/12/13 08:49:06;;;;;;;;;;;21.40;57.40;;;;;;1556489;75;1156;-65
2022/12/13 08:51:08;;;;;;;;;;;21.50;57.60;;;;;;1558114;75;1526;-65
2022/12/13 08:53:10;;;;;;;;;;;21.40;57.50;;;;;;1544361;75;851;-65
2022/12/13 08:55:12;;;;;;;;;;;21.40;57.50;;;;;;1561115;75;749;-65
2022/12/13 08:57:14;;;;;;;;;;;21.40;57.40;;;;;;1536806;75;798;-64
2022/12/13 08:59:17;;;;;;;;;;;21.40;57.30;;;;;;1543121;75;1074;-63
2022/12/13 09:01:19;;;;;;;;;;;21.40;57.30;;;;;;1544280;73;232025;-66
2022/12/13 09:03:20;;;;;;;;;;;21.40;57.30;;;;;;1558669;75;1179;-63
2022/12/13 09:05:22;;;;;;;;;;;21.40;57.10;;;;;;1563396;75;1940;-64
2022/12/13 09:07:24;;;;;;;;;;;21.50;57.10;;;;;;1559059;74;661;-65
2022/12/13 09:09:27;;;;;;;;;;;21.50;57.00;;;;;;1564586;75;741;-64
2022/12/13 09:11:29;;;;;;;;;;;21.40;56.80;;;;;;1546644;75;722;-64
2022/12/13 09:13:31;;;;;;;;;;;21.50;56.80;;;;;;1558355;75;1125;-64
2022/12/13 09:15:33;;;;;;;;;;;21.50;56.70;;;;;;1556067;75;780;-65
2022/12/13 09:17:35;;;;;;;;;;;21.50;56.70;;;;;;1560149;75;671;-64
2022/12/13 09:19:37;;;;;;;;;;;21.50;56.60;;;;;;1530519;76;1503;-65
2022/12/13 09:21:39;;;;;;;;;;;21.50;56.60;;;;;;1558100;75;810;-64
2022/12/13 09:23:41;;;;;;;;;;;21.50;56.60;;;;;;1552276;75;1140;-65
2022/12/13 09:25:43;;;;;;;;;;;21.50;56.60;;;;;;1571096;75;1962;-65
2022/12/13 09:27:44;;;;;;;;;;;21.50;56.50;;;;;;1572456;75;675;-64
2022/12/13 09:29:46;;;;;;;;;;;21.50;56.50;;;;;;1560744;75;686;-64
2022/12/13 09:31:48;;;;;;;;;;;21.50;56.40;;;;;;1556023;75;659;-64
2022/12/13 09:33:50;;;;;;;;;;;21.50;56.30;;;;;;1558758;75;1522;-64
2022/12/13 09:35:52;;;;;;;;;;;21.60;56.30;;;;;;1560277;75;732;-64
2022/12/13 09:37:54;;;;;;;;;;;21.60;56.30;;;;;;1555544;75;723;-64
2022/12/13 09:39:56;;;;;;;;;;;21.60;56.30;;;;;;1552872;75;804;-65
2022/12/13 09:41:58;;;;;;;;;;;21.60;56.10;;;;;;1555201;75;679;-65
2022/12/13 09:44:01;;;;;;;;;;;21.60;56.10;;;;;;1555482;75;1169;-65
2022/12/13 09:46:04;;;;;;;;;;;21.60;56.00;;;;;;1558932;75;1935;-65
2022/12/13 09:48:06;;;;;;;;;;;21.70;56.00;;;;;;1557349;75;1434;-66
2022/12/13 09:50:09;;;;;;;;;;;21.70;56.00;;;;;;1557069;75;707;-66
2022/12/13 09:52:13;;;;;;;;;;;21.70;55.90;;;;;;1565950;75;709;-65
2022/12/13 09:54:21;;;;;;;;;;;21.70;55.90;;;;;;1566072;74;1223;-66
2022/12/13 09:56:23;;;;;;;;;;;21.70;55.90;;;;;;1555988;75;778;-66
2022/12/13 09:58:29;;;;;;;;;;;21.80;55.90;;;;;;1560187;75;757;-66
2022/12/13 10:00:32;;;;;;;;;;;21.70;55.80;;;;;;1555425;76;1379;-66
2022/12/13 10:02:35;;;;;;;;;;;21.80;55.90;;;;;;1573857;74;1115;-66
2022/12/13 10:04:37;;;;;;;;;;;21.70;55.90;;;;;;1562229;75;1934;-66
2022/12/13 10:06:39;;;;;;;;;;;21.80;55.80;;;;;;1544062;75;715;-65
2022/12/13 10:08:42;;;;;;;;;;;21.70;55.90;;;;;;1546747;75;739;-66
2022/12/13 10:10:44;;;;;;;;;;;21.70;55.80;;;;;;1558244;75;1319;-66
2022/12/13 10:12:48;;;;;;;;;;;21.80;55.90;;;;;;1560952;75;1158;-65
2022/12/13 10:14:52;;;;;;;;;;;21.70;55.80;;;;;;1560650;75;1429;-66
2022/12/13 10:16:57;;;;;;;;;;;21.70;55.90;;;;;;1553460;75;1744;-66
2022/12/13 10:18:58;;;;;;;;;;;21.80;55.90;;;;;;1570577;74;636;-66
2022/12/13 10:21:02;;;;;;;;;;;21.70;56.00;;;;;;1564320;75;729;-66
2022/12/13 10:23:04;;;;;;;;;;;21.70;56.00;;;;;;1558142;75;1852;-66
2022/12/13 10:25:06;;;;;;;;;;;21.70;56.00;;;;;;1549813;75;1924;-66
2022/12/13 10:27:11;;;;;;;;;;;21.70;56.10;;;;;;1558499;75;718;-66
2022/12/13 10:29:13;;;;;;;;;;;21.70;56.10;;;;;;1559984;75;1523;-66
2022/12/13 10:31:16;;;;;;;;;;;21.70;56.00;;;;;;1555714;75;648;-66
2022/12/13 10:33:21;;;;;;;;;;;21.70;56.00;;;;;;1554761;75;1149;-66
2022/12/13 10:35:39;;;;;;;;;;;21.60;55.90;;;;;;1559257;75;635;-66
2022/12/13 10:37:40;;;;;;;;;;;21.60;55.90;;;;;;1556353;75;742;-66
2022/12/13 10:39:42;;;;;;;;;;;21.60;56.00;;;;;;1555271;75;1006;-66
2022/12/13 10:41:49;;;;;;;;;;;21.70;56.00;;;;;;1559893;75;730;-66
2022/12/13 10:43:49;;;;;;;;;;;21.70;56.10;;;;;;1558566;75;1587;-65
2022/12/13 10:45:59;;;;;;;;;;;21.70;56.10;;;;;;1558668;75;1942;-66
2022/12/13 10:48:00;;;;;;;;;;;21.70;56.10;;;;;;1557496;75;720;-66
2022/12/13 10:50:02;;;;;;;;;;;21.70;56.10;;;;;;1523966;76;1068;-66
2022/12/13 10:52:04;;;;;;;;;;;21.70;56.10;;;;;;1542286;76;723;-66
2022/12/13 10:54:08;;;;;;;;;;;21.70;56.10;;;;;;1540472;76;1170;-66
2022/12/13 10:56:10;;;;;;;;;;;21.70;56.00;;;;;;1542265;76;2269;-66
2022/12/13 10:58:13;;;;;;;;;;;21.70;56.00;;;;;;1533408;76;1617;-67
2022/12/13 11:00:17;;;;;;;;;;;21.80;55.90;;;;;;1537291;77;945;-67
2022/12/13 11:02:26;;;;;;;;;;;21.70;56.00;;;;;;1539291;76;1658;-66
2022/12/13 11:04:32;;;;;;;;;;;21.70;55.90;;;;;;1570831;75;1098;-66
2022/12/13 11:06:44;;;;;;;;;;;21.70;55.90;;;;;;1555214;75;1930;-65
2022/12/13 11:08:46;;;;;;;;;;;21.70;55.90;;;;;;1565897;74;711;-65
2022/12/13 11:10:49;;;;;;;;;;;21.80;55.80;;;;;;1538774;74;566;-65
2022/12/13 11:12:51;;;;;;;;;;;21.70;55.80;;;;;;1537545;76;1679;-66
2022/12/13 11:14:55;;;;;;;;;;;21.70;55.80;;;;;;1566245;74;759;-66
2022/12/13 11:16:58;;;;;;;;;;;21.80;55.80;;;;;;1559382;75;787;-66
2022/12/13 11:19:02;;;;;;;;;;;21.80;55.70;;;;;;1535998;76;716;-66
2022/12/13 11:21:04;;;;;;;;;;;21.80;55.70;;;;;;1548532;74;1019;-66
2022/12/13 11:23:06;;;;;;;;;;;21.80;55.70;;;;;;1554972;75;1165;-66
2022/12/13 11:25:09;;;;;;;;;;;21.80;55.70;;;;;;1560183;75;1971;-66
2022/12/13 11:27:12;;;;;;;;;;;21.80;55.70;;;;;;1551580;76;768;-66
2022/12/13 11:29:22;;;;;;;;;;;21.80;55.70;;;;;;1549332;74;1734;-66
2022/12/13 11:31:28;;;;;;;;;;;21.80;55.70;;;;;;1537928;75;985;-66
2022/12/13 11:33:37;;;;;;;;;;;21.80;55.60;;;;;;1515986;76;1140;-66
2022/12/13 11:35:56;;;;;;;;;;;21.80;55.60;;;;;;1557782;75;1995;-67
2022/12/13 11:37:59;;;;;;;;;;;21.80;55.60;;;;;;1558851;75;1899;-65
2022/12/13 11:40:05;;;;;;;;;;;21.90;55.70;;;;;;1552093;75;1638;-66
2022/12/13 11:42:21;;;;;;;;;;;21.90;55.70;;;;;;1557285;75;739;-66
2022/12/13 11:44:30;;;;;;;;;;;21.80;55.60;;;;;;1558511;75;1087;-66
2022/12/13 11:46:34;;;;;;;;;;;21.80;55.60;;;;;;1547417;75;1919;-65
2022/12/13 11:48:43;;;;;;;;;;;21.80;55.60;;;;;;1540585;76;1508;-66
2022/12/13 11:50:46;;;;;;;;;;;21.90;55.80;;;;;;1555715;75;740;-66
2022/12/13 11:53:02;;;;;;;;;;;21.90;55.80;;;;;;1557254;75;1186;-65
2022/12/13 11:55:21;;;;;;;;;;;21.80;55.60;;;;;;1567877;75;1923;-67
2022/12/13 11:57:24;;;;;;;;;;;21.90;55.80;;;;;;1529485;76;1224;-66
2022/12/13 11:59:28;;;;;;;;;;;21.90;55.70;;;;;;1550200;75;2128;-66
2022/12/13 12:01:48;;;;;;;;;;;21.80;55.70;;;;;;1557390;75;804;-66
2022/12/13 12:03:55;;;;;;;;;;;21.80;55.70;;;;;;1559656;75;1516;-66
2022/12/13 12:06:10;;;;;;;;;;;21.80;55.60;;;;;;1556533;75;1935;-66
2022/12/13 12:08:14;;;;;;;;;;;21.90;55.80;;;;;;1552466;75;1537;-66
2022/12/13 12:10:34;;;;;;;;;;;21.80;55.60;;;;;;1561562;75;1799;-66
2022/12/13 12:12:36;;;;;;;;;;;21.80;55.60;;;;;;1557975;75;1356;-66
2022/12/13 12:14:42;;;;;;;;;;;21.80;55.60;;;;;;1554764;75;782;-65
2022/12/13 12:16:49;;;;;;;;;;;21.80;55.60;;;;;;1561422;75;939;-65